Time;durP1;ratioP1;P1;durP2;ratioP2;P2;SDS_P1;SDS_P2;PMS_P1;PMS_P2;Temp;Humidity;BMP_temperature;BMP_pressure;BME280_temperature;BME280_humidity;BME280_pressure;Samples;Min_cycle;Max_cycle;Signal;HPM_P1;HPM_P2
2022/10/28 00:00:02;;;;;;;5.70;3.38;;;;;;;;;;5114274;28;20470;-83
2022/10/28 00:02:28;;;;;;;4.93;3.63;;;;;;;;;;5114426;28;20488;-86
2022/10/28 00:04:54;;;;;;;7.40;4.10;;;;;;;;;;5114177;28;20023;-81
2022/10/28 00:07:20;;;;;;;4.75;3.72;;;;;;;;;;5114510;28;20035;-84
2022/10/28 00:09:46;;;;;;;5.75;3.97;;;;;;;;;;5114241;28;20107;-82
2022/10/28 00:12:12;;;;;;;6.60;4.20;;;;;;;;;;5114332;28;20024;-86
2022/10/28 00:14:38;;;;;;;6.13;4.30;;;;;;;;;;5114207;28;20031;-88
2022/10/28 00:17:04;;;;;;;8.43;4.20;;;;;;;;;;5113961;28;20382;-83
2022/10/28 00:19:31;;;;;;;7.28;3.85;;;;;;;;;;5114030;28;20031;-87
2022/10/28 00:21:57;;;;;;;6.40;4.32;;;;;;;;;;5113933;28;20026;-81
2022/10/28 00:24:23;;;;;;;5.82;4.07;;;;;;;;;;5114146;28;20023;-85
2022/10/28 00:26:49;;;;;;;7.82;3.72;;;;;;;;;;5113796;28;20023;-83
2022/10/28 00:29:16;;;;;;;5.82;3.53;;;;;;;;;;5113975;28;20026;-80
2022/10/28 00:31:43;;;;;;;4.20;3.20;;;;;;;;;;5113976;28;20015;-87
2022/10/28 00:34:12;;;;;;;7.85;4.65;;;;;;;;;;5113618;28;20026;-83
2022/10/28 00:36:39;;;;;;;5.63;3.72;;;;;;;;;;5113848;28;20035;-86
2022/10/28 00:39:10;;;;;;;5.15;3.45;;;;;;;;;;5113493;28;20488;-81
2022/10/28 00:41:37;;;;;;;5.00;3.80;;;;;;;;;;5113081;28;20382;-85
2022/10/28 00:44:23;;;;;;;6.20;3.50;;;;;;;;;;5113403;28;20024;-86
2022/10/28 00:46:52;;;;;;;5.43;4.20;;;;;;;;;;5113303;28;20462;-85
2022/10/28 00:49:21;;;;;;;6.68;4.30;;;;;;;;;;5113594;28;20019;-82
2022/10/28 00:51:48;;;;;;;6.10;4.30;;;;;;;;;;5105167;28;20055;-84
2022/10/28 00:54:16;;;;;;;7.85;3.97;;;;;;;;;;5093029;28;20020;-85
2022/10/28 00:56:44;;;;;;;5.85;4.43;;;;;;;;;;5092750;28;20024;-83
2022/10/28 00:59:28;;;;;;;6.72;3.83;;;;;;;;;;5092973;28;20081;-86
2022/10/28 01:01:54;;;;;;;7.20;3.90;;;;;;;;;;5074937;28;20028;-86
2022/10/28 01:04:20;;;;;;;5.50;3.78;;;;;;;;;;5092710;28;20027;-84
2022/10/28 01:06:47;;;;;;;5.07;3.58;;;;;;;;;;5074493;28;20475;-82
2022/10/28 01:09:13;;;;;;;4.88;3.72;;;;;;;;;;5094447;28;20039;-82
2022/10/28 01:11:58;;;;;;;5.30;4.30;;;;;;;;;;5092965;28;20103;-81
2022/10/28 01:14:27;;;;;;;4.32;3.50;;;;;;;;;;5092849;28;20471;-82
2022/10/28 01:17:12;;;;;;;5.10;3.67;;;;;;;;;;5092711;28;20043;-84
2022/10/28 01:19:37;;;;;;;;;;;;;;;;;;5093066;28;20528;-84
2022/10/28 01:22:24;;;;;;;6.97;3.10;;;;;;;;;;5092362;28;19942;-84
2022/10/28 01:24:50;;;;;;;7.53;4.10;;;;;;;;;;5092196;28;20081;-84
2022/10/28 01:27:51;;;;;;;3.97;3.25;;;;;;;;;;5092539;28;20020;-83
2022/10/28 01:30:22;;;;;;;6.22;3.80;;;;;;;;;;4990888;28;20541;-85
2022/10/28 01:32:51;;;;;;;4.68;3.40;;;;;;;;;;5075639;28;20075;-84
2022/10/28 01:35:36;;;;;;;5.13;3.50;;;;;;;;;;5092475;28;20379;-85
2022/10/28 01:38:14;;;;;;;5.40;3.28;;;;;;;;;;5074278;28;20375;-83
2022/10/28 01:40:44;;;;;;;4.22;3.28;;;;;;;;;;5092304;28;20356;-86
2022/10/28 01:43:12;;;;;;;6.22;4.03;;;;;;;;;;5092489;28;20039;-83
2022/10/28 01:45:57;;;;;;;5.47;3.50;;;;;;;;;;5092120;28;20103;-83
2022/10/28 01:48:30;;;;;;;4.70;3.42;;;;;;;;;;5092356;28;20028;-82
2022/10/28 01:51:14;;;;;;;4.95;3.22;;;;;;;;;;5075199;28;20048;-87
2022/10/28 01:53:42;;;;;;;5.38;3.63;;;;;;;;;;5112702;28;20024;-85
2022/10/28 01:56:11;;;;;;;7.95;5.35;;;;;;;;;;5112561;28;20068;-84
2022/10/28 01:58:38;;;;;;;12.25;6.00;;;;;;;;;;5112746;28;20028;-85
2022/10/28 02:01:05;;;;;;;9.70;5.75;;;;;;;;;;5112503;28;20023;-85
2022/10/28 02:03:31;;;;;;;7.47;4.65;;;;;;;;;;5112612;28;20493;-83
2022/10/28 02:06:00;;;;;;;7.78;4.78;;;;;;;;;;5112512;28;20027;-85
2022/10/28 02:08:44;;;;;;;7.40;4.97;;;;;;;;;;5112516;28;20027;-83
2022/10/28 02:11:29;;;;;;;6.18;4.35;;;;;;;;;;5112369;28;20030;-83
2022/10/28 02:13:55;;;;;;;7.57;4.03;;;;;;;;;;5112417;28;20020;-83
2022/10/28 02:16:40;;;;;;;5.68;3.58;;;;;;;;;;5112520;28;20028;-83
2022/10/28 02:19:25;;;;;;;6.63;3.63;;;;;;;;;;5115394;28;20465;-82
2022/10/28 02:21:57;;;;;;;4.95;3.85;;;;;;;;;;5116405;28;20043;-86
2022/10/28 02:24:32;;;;;;;8.48;4.43;;;;;;;;;;5116034;28;20102;-87
2022/10/28 02:27:05;;;;;;;12.25;5.50;;;;;;;;;;5097632;28;20440;-85
2022/10/28 02:29:35;;;;;;;9.27;5.78;;;;;;;;;;5116208;28;20019;-87
2022/10/28 02:32:05;;;;;;;10.30;6.97;;;;;;;;;;5116024;28;20047;-87
2022/10/28 02:34:38;;;;;;;9.80;6.18;;;;;;;;;;5116292;28;20073;-82
2022/10/28 02:37:07;;;;;;;8.25;5.57;;;;;;;;;;5116237;28;20466;-85
2022/10/28 02:39:40;;;;;;;9.63;5.45;;;;;;;;;;5116159;28;20062;-83
2022/10/28 02:42:08;;;;;;;7.50;4.85;;;;;;;;;;5116239;28;20027;-83
2022/10/28 02:44:38;;;;;;;7.18;5.13;;;;;;;;;;5115796;28;20019;-85
2022/10/28 02:47:07;;;;;;;10.93;5.55;;;;;;;;;;5116048;28;20077;-86
2022/10/28 02:49:35;;;;;;;8.98;5.93;;;;;;;;;;5115541;28;20398;-86
2022/10/28 02:52:02;;;;;;;12.30;7.07;;;;;;;;;;5115866;28;20098;-87
2022/10/28 02:54:34;;;;;;;14.35;9.00;;;;;;;;;;5115573;28;20027;-87
2022/10/28 02:57:03;;;;;;;18.30;11.02;;;;;;;;;;5115959;28;20024;-84
2022/10/28 02:59:29;;;;;;;20.08;13.30;;;;;;;;;;5115599;28;20561;-82
2022/10/28 03:01:55;;;;;;;24.35;14.50;;;;;;;;;;5115749;28;20092;-86
2022/10/28 03:04:22;;;;;;;26.50;15.40;;;;;;;;;;5097386;28;20031;-85
2022/10/28 03:06:48;;;;;;;26.20;15.60;;;;;;;;;;5115463;28;20462;-84
2022/10/28 03:09:14;;;;;;;27.98;14.93;;;;;;;;;;5115574;28;20031;-86
2022/10/28 03:11:40;;;;;;;21.67;12.38;;;;;;;;;;5115060;28;20516;-85
2022/10/28 03:14:06;;;;;;;26.45;14.60;;;;;;;;;;5115392;28;20482;-86
2022/10/28 03:16:32;;;;;;;25.17;14.75;;;;;;;;;;5115165;28;20024;-83
2022/10/28 03:18:58;;;;;;;22.85;13.05;;;;;;;;;;5115513;28;20023;-88
2022/10/28 03:21:24;;;;;;;22.83;11.70;;;;;;;;;;5115411;28;20028;-83
2022/10/28 03:23:50;;;;;;;17.30;10.55;;;;;;;;;;5115185;28;20558;-88
2022/10/28 03:26:16;;;;;;;20.15;11.90;;;;;;;;;;5115063;28;20028;-82
2022/10/28 03:28:42;;;;;;;24.10;12.68;;;;;;;;;;5114688;28;20062;-85
2022/10/28 03:31:09;;;;;;;17.70;10.35;;;;;;;;;;5112949;28;20028;-83
2022/10/28 03:33:35;;;;;;;22.33;11.05;;;;;;;;;;5114913;28;20024;-84
2022/10/28 03:36:01;;;;;;;17.05;10.05;;;;;;;;;;5114941;28;20023;-87
2022/10/28 03:38:27;;;;;;;17.95;10.18;;;;;;;;;;5114921;28;20474;-86
2022/10/28 03:40:53;;;;;;;68.97;45.70;;;;;;;;;;5114608;28;20027;-82
2022/10/28 03:43:19;;;;;;;34.05;19.35;;;;;;;;;;5114792;28;20030;-84
2022/10/28 03:45:45;;;;;;;36.08;21.95;;;;;;;;;;5114503;28;20027;-85
2022/10/28 03:48:11;;;;;;;24.33;16.90;;;;;;;;;;5114761;28;20024;-83
2022/10/28 03:50:37;;;;;;;25.73;16.20;;;;;;;;;;5114302;28;20485;-83
2022/10/28 03:53:03;;;;;;;26.00;14.32;;;;;;;;;;5113478;28;20052;-85
2022/10/28 03:55:29;;;;;;;26.15;13.40;;;;;;;;;;5114541;28;20061;-86
2022/10/28 03:57:55;;;;;;;21.45;12.10;;;;;;;;;;5114300;28;20019;-82
2022/10/28 04:00:21;;;;;;;22.33;14.07;;;;;;;;;;5114305;28;20020;-84
2022/10/28 04:03:06;;;;;;;23.10;13.13;;;;;;;;;;5101367;28;20441;-86
2022/10/28 04:05:32;;;;;;;19.30;11.02;;;;;;;;;;5110516;28;20035;-86
2022/10/28 04:07:58;;;;;;;26.27;13.45;;;;;;;;;;5113442;28;20027;-83
2022/10/28 04:10:24;;;;;;;24.38;13.90;;;;;;;;;;5112048;28;20081;-84
2022/10/28 04:12:50;;;;;;;24.58;14.77;;;;;;;;;;5113627;28;20030;-84
2022/10/28 04:15:16;;;;;;;25.42;16.10;;;;;;;;;;5114125;28;20501;-83
2022/10/28 04:17:42;;;;;;;28.65;14.13;;;;;;;;;;5113746;28;20503;-84
2022/10/28 04:20:08;;;;;;;17.60;9.18;;;;;;;;;;5114187;28;20027;-84
2022/10/28 04:22:34;;;;;;;17.73;9.25;;;;;;;;;;5113484;28;20027;-85
2022/10/28 04:25:00;;;;;;;19.48;10.35;;;;;;;;;;5113564;28;20038;-85
2022/10/28 04:27:26;;;;;;;19.75;12.05;;;;;;;;;;5095920;28;20100;-86
2022/10/28 04:29:52;;;;;;;20.10;11.07;;;;;;;;;;5104863;28;20015;-86
2022/10/28 04:32:19;;;;;;;19.95;10.50;;;;;;;;;;5113860;28;20024;-84
2022/10/28 04:34:45;;;;;;;18.17;10.10;;;;;;;;;;5095108;28;20123;-83
2022/10/28 04:37:11;;;;;;;101.63;65.70;;;;;;;;;;5095748;28;20390;-86
2022/10/28 04:39:37;;;;;;;19.50;12.85;;;;;;;;;;5113524;28;20023;-87
2022/10/28 04:42:03;;;;;;;23.17;12.90;;;;;;;;;;5112687;28;20027;-82
2022/10/28 04:44:29;;;;;;;20.33;11.07;;;;;;;;;;5113512;28;20019;-80
2022/10/28 04:46:55;;;;;;;22.75;13.75;;;;;;;;;;5095097;28;20023;-85
2022/10/28 04:49:21;;;;;;;24.25;15.18;;;;;;;;;;5113599;28;20023;-84
2022/10/28 04:51:48;;;;;;;24.15;14.32;;;;;;;;;;5113311;28;20048;-85
2022/10/28 04:54:14;;;;;;;20.00;12.27;;;;;;;;;;5113670;28;20489;-85
2022/10/28 04:56:40;;;;;;;20.17;12.63;;;;;;;;;;5095085;28;20050;-85
2022/10/28 04:59:06;;;;;;;19.73;12.73;;;;;;;;;;5113391;28;20031;-83
2022/10/28 05:01:35;;;;;;;19.42;11.85;;;;;;;;;;5113356;28;20020;-81
2022/10/28 05:04:01;;;;;;;20.38;12.05;;;;;;;;;;5113002;28;20398;-86
2022/10/28 05:06:27;;;;;;;69.18;45.85;;;;;;;;;;5113302;28;20047;-86
2022/10/28 05:08:53;;;;;;;77.10;53.47;;;;;;;;;;5113063;28;20028;-81
2022/10/28 05:11:19;;;;;;;49.83;31.73;;;;;;;;;;5112994;28;20119;-83
2022/10/28 05:13:45;;;;;;;34.95;23.98;;;;;;;;;;5094835;28;20433;-87
2022/10/28 05:16:12;;;;;;;27.45;17.55;;;;;;;;;;5112727;28;20019;-84
2022/10/28 05:18:38;;;;;;;29.60;18.92;;;;;;;;;;5113001;28;20027;-86
2022/10/28 05:21:04;;;;;;;44.20;31.38;;;;;;;;;;5111545;28;20032;-82
2022/10/28 05:23:30;;;;;;;52.65;30.50;;;;;;;;;;5127601;27;20030;-86
2022/10/28 05:25:56;;;;;;;52.63;35.03;;;;;;;;;;5131872;27;20423;-86
2022/10/28 05:28:22;;;;;;;53.53;35.50;;;;;;;;;;5109549;28;20020;-88
2022/10/28 05:30:48;;;;;;;59.70;38.58;;;;;;;;;;5108942;28;20024;-79
2022/10/28 05:33:14;;;;;;;74.53;50.30;;;;;;;;;;5105546;28;20035;-81
2022/10/28 05:35:41;;;;;;;109.65;74.43;;;;;;;;;;5108058;28;20471;-80
2022/10/28 05:38:07;;;;;;;90.05;61.85;;;;;;;;;;5106518;28;20043;-83
2022/10/28 05:40:34;;;;;;;77.30;53.55;;;;;;;;;;5108197;28;20488;-85
2022/10/28 05:43:00;;;;;;;73.65;47.05;;;;;;;;;;5111829;28;20039;-81
2022/10/28 05:45:26;;;;;;;62.28;38.47;;;;;;;;;;5109854;28;20072;-81
2022/10/28 05:47:53;;;;;;;42.97;26.08;;;;;;;;;;5110799;28;20031;-79
2022/10/28 05:50:21;;;;;;;41.47;24.83;;;;;;;;;;5109843;28;20030;-88
2022/10/28 05:52:51;;;;;;;39.42;28.63;;;;;;;;;;5089879;28;20535;-85
2022/10/28 05:55:19;;;;;;;47.70;31.08;;;;;;;;;;5113971;28;20019;-86
2022/10/28 05:57:45;;;;;;;51.83;32.85;;;;;;;;;;5110692;28;20020;-83
2022/10/28 06:00:12;;;;;;;55.88;37.25;;;;;;;;;;5103621;28;20081;-85
2022/10/28 06:02:38;;;;;;;59.80;40.08;;;;;;;;;;5110594;28;20398;-83
2022/10/28 06:05:04;;;;;;;68.30;40.90;;;;;;;;;;5105286;28;20023;-85
2022/10/28 06:07:31;;;;;;;50.33;32.10;;;;;;;;;;5097176;28;20032;-83
2022/10/28 06:09:57;;;;;;;44.13;31.30;;;;;;;;;;5090804;28;20034;-82
2022/10/28 06:12:23;;;;;;;43.55;28.02;;;;;;;;;;5110990;28;20081;-84
2022/10/28 06:14:49;;;;;;;51.08;29.30;;;;;;;;;;5120352;27;20395;-87
2022/10/28 06:17:15;;;;;;;85.35;38.63;;;;;;;;;;5106556;28;20114;-83
2022/10/28 06:19:41;;;;;;;181.07;68.85;;;;;;;;;;5114588;28;20023;-86
2022/10/28 06:22:07;;;;;;;145.63;63.25;;;;;;;;;;5114795;27;20024;-82
2022/10/28 06:24:34;;;;;;;187.63;84.07;;;;;;;;;;5114821;28;20088;-81
2022/10/28 06:27:00;;;;;;;80.40;40.15;;;;;;;;;;5114963;28;20028;-85
2022/10/28 06:29:26;;;;;;;51.90;34.38;;;;;;;;;;5114729;28;20526;-81
2022/10/28 06:31:52;;;;;;;43.78;23.58;;;;;;;;;;5104187;28;20024;-79
2022/10/28 06:34:18;;;;;;;25.83;16.45;;;;;;;;;;5109101;28;20024;-83
2022/10/28 06:36:44;;;;;;;22.83;13.98;;;;;;;;;;5112004;28;20028;-81
2022/10/28 06:39:10;;;;;;;17.88;10.80;;;;;;;;;;5114676;28;20032;-84
2022/10/28 06:41:36;;;;;;;27.85;16.83;;;;;;;;;;5114646;28;20133;-81
2022/10/28 06:44:02;;;;;;;19.45;10.18;;;;;;;;;;5079710;28;20035;-82
2022/10/28 06:46:28;;;;;;;19.83;11.40;;;;;;;;;;5080000;28;20027;-85
2022/10/28 06:48:55;;;;;;;84.03;53.00;;;;;;;;;;5111901;28;20027;-85
2022/10/28 06:51:21;;;;;;;38.42;21.30;;;;;;;;;;5104232;27;20070;-79
2022/10/28 06:53:51;;;;;;;30.15;19.88;;;;;;;;;;5116220;27;20033;-83
2022/10/28 06:56:17;;;;;;;26.20;14.98;;;;;;;;;;5114906;27;20027;-84
2022/10/28 06:58:43;;;;;;;29.60;18.35;;;;;;;;;;5115284;27;20756;-81
2022/10/28 07:01:09;;;;;;;21.33;11.07;;;;;;;;;;5115530;27;20015;-84
2022/10/28 07:03:35;;;;;;;37.60;18.98;;;;;;;;;;5113359;28;20106;-85
2022/10/28 07:06:01;;;;;;;48.20;21.00;;;;;;;;;;5105110;28;20106;-83
2022/10/28 07:08:27;;;;;;;39.10;17.95;;;;;;;;;;5111759;28;20465;-81
2022/10/28 07:10:55;;;;;;;33.08;15.63;;;;;;;;;;5095709;27;20755;-80
2022/10/28 07:13:21;;;;;;;31.60;14.95;;;;;;;;;;5112386;28;20482;-81
2022/10/28 07:15:51;;;;;;;28.40;13.40;;;;;;;;;;5113175;27;20031;-82
2022/10/28 07:18:17;;;;;;;26.95;13.40;;;;;;;;;;5110739;28;20020;-82
2022/10/28 07:20:43;;;;;;;22.15;12.25;;;;;;;;;;5094134;28;20051;-81
2022/10/28 07:23:10;;;;;;;26.27;12.02;;;;;;;;;;5120151;27;20426;-85
2022/10/28 07:25:36;;;;;;;86.20;31.55;;;;;;;;;;5112058;27;20027;-84
2022/10/28 07:28:02;;;;;;;121.03;43.47;;;;;;;;;;5096336;27;20516;-83
2022/10/28 07:30:29;;;;;;;203.30;66.55;;;;;;;;;;5113430;27;20034;-78
2022/10/28 07:32:59;;;;;;;152.60;49.22;;;;;;;;;;5112827;27;20073;-85
2022/10/28 07:35:25;;;;;;;204.15;67.20;;;;;;;;;;5113834;28;20496;-82
2022/10/28 07:37:51;;;;;;;181.32;58.22;;;;;;;;;;5112384;28;20032;-87
2022/10/28 07:40:18;;;;;;;209.05;71.68;;;;;;;;;;5112365;28;20111;-85
2022/10/28 07:42:44;;;;;;;163.20;69.50;;;;;;;;;;5093389;28;20038;-87
2022/10/28 07:45:10;;;;;;;113.00;51.75;;;;;;;;;;5097826;28;20036;-85
2022/10/28 07:47:36;;;;;;;132.65;65.78;;;;;;;;;;5111890;28;20047;-82
2022/10/28 07:50:02;;;;;;;101.70;47.15;;;;;;;;;;5109245;28;20402;-86
2022/10/28 07:52:28;;;;;;;20.15;12.23;;;;;;;;;;5091669;28;20040;-84
2022/10/28 07:54:54;;;;;;;24.02;12.48;;;;;;;;;;5112540;28;20027;-86
2022/10/28 07:57:21;;;;;;;17.05;8.02;;;;;;;;;;5112793;28;20549;-86
2022/10/28 07:59:47;;;;;;;11.43;6.57;;;;;;;;;;5111856;28;20775;-82
2022/10/28 08:02:18;;;;;;;42.40;12.90;;;;;;;;;;5114060;27;20085;-83
2022/10/28 08:04:44;;;;;;;19.30;8.43;;;;;;;;;;5112940;28;20067;-82
2022/10/28 08:07:10;;;;;;;18.73;7.97;;;;;;;;;;5112910;28;20032;-82
2022/10/28 08:09:36;;;;;;;21.70;7.43;;;;;;;;;;5110127;28;20061;-80
2022/10/28 08:12:02;;;;;;;20.67;8.18;;;;;;;;;;5111109;28;20085;-82
2022/10/28 08:14:28;;;;;;;30.05;15.48;;;;;;;;;;5107725;28;20020;-82
2022/10/28 08:16:55;;;;;;;23.00;10.60;;;;;;;;;;5091419;28;20041;-86
2022/10/28 08:19:21;;;;;;;15.80;7.13;;;;;;;;;;5108904;27;20020;-85
2022/10/28 08:21:47;;;;;;;20.83;10.32;;;;;;;;;;5103938;27;20027;-82
2022/10/28 08:24:13;;;;;;;14.35;7.68;;;;;;;;;;5104521;28;20016;-81
2022/10/28 08:26:39;;;;;;;9.20;5.78;;;;;;;;;;5110190;28;20028;-82
2022/10/28 08:29:05;;;;;;;8.43;6.10;;;;;;;;;;5112187;28;20026;-82
2022/10/28 08:31:32;;;;;;;9.35;4.97;;;;;;;;;;5107842;28;20189;-84
2022/10/28 08:33:58;;;;;;;9.20;6.68;;;;;;;;;;5108358;28;20065;-83
2022/10/28 08:36:24;;;;;;;10.60;5.25;;;;;;;;;;5092782;28;20032;-82
2022/10/28 08:38:50;;;;;;;11.82;5.80;;;;;;;;;;5074648;28;20036;-82
2022/10/28 08:41:32;;;;;;;18.45;15.63;;;;;;;;;;5094416;28;20027;-80
2022/10/28 08:44:16;;;;;;;13.68;7.88;;;;;;;;;;5093812;28;20070;-73
2022/10/28 08:46:42;;;;;;;;;;;;;;;;;;5101697;27;20058;-76
2022/10/28 08:49:10;;;;;;;90.25;34.53;;;;;;;;;;5112934;27;20353;-75
2022/10/28 08:51:41;;;;;;;115.25;51.05;;;;;;;;;;5110268;27;20039;-72
2022/10/28 08:54:17;;;;;;;94.05;46.70;;;;;;;;;;5107448;28;20023;-76
2022/10/28 08:59:31;;;;;;;33.13;19.42;;;;;;;;;;5105659;28;20117;-73
2022/10/28 09:02:00;;;;;;;21.10;13.55;;;;;;;;;;5109786;28;20028;-74
2022/10/28 09:04:29;;;;;;;15.18;8.80;;;;;;;;;;5111943;27;20022;-73
2022/10/28 09:06:56;;;;;;;13.30;7.43;;;;;;;;;;5091772;28;20764;-75
2022/10/28 09:09:23;;;;;;;9.10;5.45;;;;;;;;;;5091448;28;20386;-74
2022/10/28 09:11:49;;;;;;;8.68;5.72;;;;;;;;;;5108987;27;20027;-75
2022/10/28 09:14:25;;;;;;;10.63;6.85;;;;;;;;;;5110079;28;20528;-72
2022/10/28 09:17:00;;;;;;;9.55;5.55;;;;;;;;;;5083958;28;20409;-82
2022/10/28 09:19:33;;;;;;;8.05;4.28;;;;;;;;;;5102745;28;20565;-87
2022/10/28 09:22:18;;;;;;;7.28;3.95;;;;;;;;;;5099352;27;20031;-84
2022/10/28 09:25:06;;;;;;;7.90;4.50;;;;;;;;;;5112104;28;20106;-83
2022/10/28 09:27:38;;;;;;;7.72;3.90;;;;;;;;;;5110303;28;20036;-81
2022/10/28 09:30:07;;;;;;;6.85;4.72;;;;;;;;;;5110887;28;20031;-83
2022/10/28 09:32:39;;;;;;;7.57;4.32;;;;;;;;;;5110352;28;20501;-85
2022/10/28 09:35:14;;;;;;;8.00;4.38;;;;;;;;;;5091170;28;20061;-84
2022/10/28 09:37:42;;;;;;;9.07;4.93;;;;;;;;;;5106846;28;20024;-83
2022/10/28 09:40:20;;;;;;;10.13;5.55;;;;;;;;;;5108774;28;20052;-84
2022/10/28 09:42:55;;;;;;;9.15;4.05;;;;;;;;;;5105915;28;20058;-82
2022/10/28 09:45:23;;;;;;;7.80;4.70;;;;;;;;;;5106703;28;20129;-82
2022/10/28 09:47:58;;;;;;;14.32;5.15;;;;;;;;;;5110521;28;20028;-81
2022/10/28 09:50:28;;;;;;;10.55;6.88;;;;;;;;;;5104150;28;20058;-80
2022/10/28 09:53:09;;;;;;;12.15;6.93;;;;;;;;;;5088598;28;20129;-80
2022/10/28 09:55:35;;;;;;;5.05;3.20;;;;;;;;;;5091660;28;20017;-84
2022/10/28 09:58:05;;;;;;;21.52;4.93;;;;;;;;;;5099426;28;20107;-83
2022/10/28 10:00:31;;;;;;;5.13;3.88;;;;;;;;;;5088533;28;20085;-82
2022/10/28 10:02:58;;;;;;;8.63;5.07;;;;;;;;;;5086165;28;20420;-83
2022/10/28 10:05:24;;;;;;;5.22;3.55;;;;;;;;;;5078753;28;20035;-84
2022/10/28 10:07:52;;;;;;;6.45;3.30;;;;;;;;;;5084977;28;20025;-82
2022/10/28 10:10:23;;;;;;;5.03;3.50;;;;;;;;;;5091600;28;20030;-88
2022/10/28 10:12:49;;;;;;;19.92;7.57;;;;;;;;;;5098087;28;20025;-80
2022/10/28 10:15:20;;;;;;;7.47;4.00;;;;;;;;;;5096211;28;20035;-84
2022/10/28 10:17:47;;;;;;;11.02;7.93;;;;;;;;;;5090817;28;20040;-85
2022/10/28 10:20:15;;;;;;;7.10;5.07;;;;;;;;;;5088170;28;20065;-83
2022/10/28 10:22:42;;;;;;;7.25;4.25;;;;;;;;;;5088116;28;20086;-72
2022/10/28 10:25:28;;;;;;;6.03;3.93;;;;;;;;;;5094639;28;20127;-84
2022/10/28 10:28:13;;;;;;;5.80;2.72;;;;;;;;;;5070189;28;20081;-83
2022/10/28 10:30:45;;;;;;;11.40;7.40;;;;;;;;;;5088819;28;20008;-84
2022/10/28 10:33:19;;;;;;;9.73;5.55;;;;;;;;;;5089168;28;20016;-76
2022/10/28 10:35:52;;;;;;;14.88;5.55;;;;;;;;;;5088757;28;20727;-84
2022/10/28 10:38:21;;;;;;;9.85;5.40;;;;;;;;;;5077949;28;20032;-85
2022/10/28 10:40:51;;;;;;;7.18;4.07;;;;;;;;;;5083016;28;20028;-88
2022/10/28 10:43:17;;;;;;;7.40;3.67;;;;;;;;;;5083567;28;20505;-89
2022/10/28 10:48:43;;;;;;;7.93;4.07;;;;;;;;;;5095731;28;20570;-84
2022/10/28 10:51:21;;;;;;;7.65;4.07;;;;;;;;;;5076476;28;20020;-86
2022/10/28 10:53:48;;;;;;;6.93;4.35;;;;;;;;;;5099813;28;20054;-86
2022/10/28 10:56:22;;;;;;;4.88;2.70;;;;;;;;;;5112736;28;20020;-87
2022/10/28 10:58:53;;;;;;;3.97;2.23;;;;;;;;;;5112403;28;20024;-84
2022/10/28 11:01:20;;;;;;;6.72;3.97;;;;;;;;;;5090568;28;20264;-83
2022/10/28 11:03:48;;;;;;;4.30;2.50;;;;;;;;;;5111455;28;20027;-86
2022/10/28 11:06:23;;;;;;;9.50;5.20;;;;;;;;;;5112982;28;20023;-85
2022/10/28 11:09:11;;;;;;;6.40;3.50;;;;;;;;;;5093547;28;20027;-87
2022/10/28 11:11:40;;;;;;;8.73;3.97;;;;;;;;;;5113224;28;20051;-85
2022/10/28 11:14:07;;;;;;;7.65;2.75;;;;;;;;;;5109041;28;20106;-86
2022/10/28 11:16:33;;;;;;;9.70;5.90;;;;;;;;;;5111165;28;20077;-84
2022/10/28 11:19:17;;;;;;;7.43;4.72;;;;;;;;;;5111231;28;20375;-85
2022/10/28 11:25:13;;;;;;;11.52;3.50;;;;;;;;;;5112126;27;20042;-88
2022/10/28 11:30:57;;;;;;;14.35;6.15;;;;;;;;;;5110106;28;20026;-87
2022/10/28 11:33:46;;;;;;;87.85;30.35;;;;;;;;;;5110502;28;20055;-86
2022/10/28 11:36:12;;;;;;;71.40;27.58;;;;;;;;;;5080967;28;20123;-84
2022/10/28 11:38:57;;;;;;;57.22;20.42;;;;;;;;;;5103154;28;20015;-88
2022/10/28 11:41:26;;;;;;;;;;;;;;;;;;5108476;28;20103;-89
2022/10/28 11:44:12;;;;;;;7.72;3.25;;;;;;;;;;5087735;28;19907;-90
2022/10/28 11:46:50;;;;;;;3.85;2.10;;;;;;;;;;5031360;28;20036;-90
2022/10/28 11:49:36;;;;;;;4.25;1.88;;;;;;;;;;5044808;28;20190;-89
2022/10/28 11:52:37;;;;;;;7.00;2.72;;;;;;;;;;5048774;28;20135;-92
2022/10/28 11:55:37;;;;;;;5.10;2.85;;;;;;;;;;5027348;28;20024;-91
2022/10/28 11:58:33;;;;;;;5.13;3.08;;;;;;;;;;5028070;28;20268;-90
2022/10/28 12:01:18;;;;;;;8.90;3.30;;;;;;;;;;5033287;28;20551;-91
2022/10/28 12:04:03;;;;;;;8.10;3.17;;;;;;;;;;5019700;28;20021;-87
2022/10/28 12:06:35;;;;;;;;;;;;;;;;;;5023600;28;20042;-88
2022/10/28 12:09:09;;;;;;;5.35;3.10;;;;;;;;;;5048441;28;20438;-91
2022/10/28 12:12:11;;;;;;;6.45;3.00;;;;;;;;;;5039101;28;20515;-88
2022/10/28 12:14:58;;;;;;;16.77;5.78;;;;;;;;;;4973703;28;20506;-89
2022/10/28 12:17:39;;;;;;;32.60;12.35;;;;;;;;;;5041806;28;20036;-85
2022/10/28 12:20:24;;;;;;;99.47;34.15;;;;;;;;;;5076672;28;20390;-87
2022/10/28 12:22:52;;;;;;;164.65;62.10;;;;;;;;;;5098018;27;20227;-86
2022/10/28 12:25:23;;;;;;;133.25;47.33;;;;;;;;;;5075528;28;20028;-86
2022/10/28 12:27:58;;;;;;;100.20;39.72;;;;;;;;;;5106484;28;20028;-87
2022/10/28 12:30:26;;;;;;;9.65;4.28;;;;;;;;;;5096474;28;20019;-85
2022/10/28 12:32:55;;;;;;;66.93;25.05;;;;;;;;;;5109231;28;20028;-87
2022/10/28 12:35:24;;;;;;;63.75;23.52;;;;;;;;;;5086551;28;20031;-87
2022/10/28 12:38:03;;;;;;;35.85;15.38;;;;;;;;;;5090555;28;20490;-85
2022/10/28 12:40:31;;;;;;;47.17;19.33;;;;;;;;;;5105666;28;20032;-86
2022/10/28 12:43:04;;;;;;;32.58;13.32;;;;;;;;;;5083949;28;20398;-87
2022/10/28 12:45:31;;;;;;;39.10;15.98;;;;;;;;;;5086269;28;20088;-85
2022/10/28 12:48:16;;;;;;;29.13;12.05;;;;;;;;;;5093822;28;20035;-85
2022/10/28 12:50:53;;;;;;;19.08;8.55;;;;;;;;;;5093539;28;20027;-85
2022/10/28 12:53:38;;;;;;;29.45;11.60;;;;;;;;;;5107285;28;20028;-85
2022/10/28 12:56:09;;;;;;;19.75;8.65;;;;;;;;;;5089856;28;20035;-85
2022/10/28 12:58:36;;;;;;;18.75;7.45;;;;;;;;;;5110434;28;20024;-86
2022/10/28 13:01:07;;;;;;;16.92;7.53;;;;;;;;;;5089791;28;20555;-85
2022/10/28 13:03:36;;;;;;;15.77;14.15;;;;;;;;;;5094245;28;20023;-85
2022/10/28 13:06:21;;;;;;;14.98;10.48;;;;;;;;;;5082309;28;20097;-87
2022/10/28 13:08:50;;;;;;;14.07;8.50;;;;;;;;;;5074835;28;20020;-83
2022/10/28 13:11:34;;;;;;;7.68;5.03;;;;;;;;;;5093422;28;20047;-86
2022/10/28 13:14:03;;;;;;;14.93;8.23;;;;;;;;;;5100077;28;20039;-86
2022/10/28 13:16:53;;;;;;;10.05;6.05;;;;;;;;;;5092876;28;20034;-86
2022/10/28 13:19:28;;;;;;;14.93;6.93;;;;;;;;;;5111690;28;20047;-85
2022/10/28 13:22:13;;;;;;;4.90;3.00;;;;;;;;;;5102157;27;20020;-85
2022/10/28 13:24:48;;;;;;;3.60;2.08;;;;;;;;;;5098196;27;20108;-82
2022/10/28 13:27:15;;;;;;;2.97;2.10;;;;;;;;;;5093754;28;20032;-85
2022/10/28 13:29:42;;;;;;;3.55;2.33;;;;;;;;;;5106192;28;20031;-83
2022/10/28 13:32:27;;;;;;;5.72;2.70;;;;;;;;;;5093144;28;20027;-82
2022/10/28 13:34:53;;;;;;;3.63;1.80;;;;;;;;;;5092610;28;20387;-82
2022/10/28 13:37:21;;;;;;;3.53;2.05;;;;;;;;;;5091027;28;20028;-80
2022/10/28 13:39:49;;;;;;;4.90;2.28;;;;;;;;;;5090868;28;20686;-81
2022/10/28 13:42:16;;;;;;;4.22;2.45;;;;;;;;;;5096298;28;20484;-83
2022/10/28 13:44:52;;;;;;;11.02;3.00;;;;;;;;;;5110962;28;20493;-83
2022/10/28 13:47:31;;;;;;;5.18;2.20;;;;;;;;;;5107352;28;20479;-83
2022/10/28 13:50:06;;;;;;;4.90;2.00;;;;;;;;;;5109236;28;20050;-83
2022/10/28 13:52:36;;;;;;;3.63;1.90;;;;;;;;;;5110385;28;20039;-83
2022/10/28 13:55:15;;;;;;;7.18;2.63;;;;;;;;;;5110689;28;20440;-81
2022/10/28 13:58:00;;;;;;;4.15;2.17;;;;;;;;;;5092601;28;20027;-82
2022/10/28 14:00:26;;;;;;;2.45;1.40;;;;;;;;;;5110743;28;20024;-81
2022/10/28 14:02:56;;;;;;;4.75;3.00;;;;;;;;;;5110833;28;20379;-80
2022/10/28 14:05:42;;;;;;;4.78;2.72;;;;;;;;;;5110909;28;20023;-83
2022/10/28 14:08:24;;;;;;;4.88;2.47;;;;;;;;;;5111885;28;20038;-82
2022/10/28 14:11:08;;;;;;;3.30;1.95;;;;;;;;;;5112074;28;20523;-82
2022/10/28 14:13:39;;;;;;;4.05;1.95;;;;;;;;;;5113388;27;20105;-82
2022/10/28 14:16:24;;;;;;;4.65;2.28;;;;;;;;;;5137050;27;20023;-83
2022/10/28 14:18:53;;;;;;;2.72;1.80;;;;;;;;;;5096003;28;20039;-81
2022/10/28 14:21:20;;;;;;;2.95;1.92;;;;;;;;;;5106567;28;20023;-82
2022/10/28 14:23:50;;;;;;;4.25;1.92;;;;;;;;;;5115343;28;20081;-80
2022/10/28 14:26:16;;;;;;;3.80;2.05;;;;;;;;;;5114540;27;20032;-83
2022/10/28 14:28:42;;;;;;;6.85;3.55;;;;;;;;;;5116006;28;20428;-83
2022/10/28 14:31:11;;;;;;;6.50;3.03;;;;;;;;;;5115228;28;20378;-80
2022/10/28 14:33:40;;;;;;;5.45;2.00;;;;;;;;;;5115703;28;20054;-79
2022/10/28 14:36:09;;;;;;;4.90;2.10;;;;;;;;;;5115443;28;20107;-81
2022/10/28 14:38:35;;;;;;;3.15;1.48;;;;;;;;;;5116169;28;20035;-82
2022/10/28 14:41:20;;;;;;;5.28;2.00;;;;;;;;;;5115576;28;20111;-83
2022/10/28 14:43:46;;;;;;;4.55;2.17;;;;;;;;;;5115816;28;20024;-82
2022/10/28 14:46:14;;;;;;;6.82;2.28;;;;;;;;;;5115503;28;20119;-82
2022/10/28 14:48:47;;;;;;;7.13;2.33;;;;;;;;;;5115587;28;20094;-82
2022/10/28 14:51:15;;;;;;;18.00;3.13;;;;;;;;;;5097143;28;20067;-82
2022/10/28 14:53:41;;;;;;;6.05;2.70;;;;;;;;;;5113880;28;20028;-81
2022/10/28 14:56:26;;;;;;;6.03;2.55;;;;;;;;;;5114278;28;20067;-82
2022/10/28 14:58:54;;;;;;;3.83;1.92;;;;;;;;;;5111717;28;20531;-84
2022/10/28 15:01:24;;;;;;;2.42;1.60;;;;;;;;;;5115249;28;20542;-82